Time;durP1;ratioP1;P1;durP2;ratioP2;P2;SDS_P1;SDS_P2;PMS_P1;PMS_P2;Temp;Humidity;BMP_temperature;BMP_pressure;BME280_temperature;BME280_humidity;BME280_pressure;Samples;Min_cycle;Max_cycle;Signal;HPM_P1;HPM_P2
2023/06/13 00:01:27;;;;;;;7.82;3.53;;;;;;;-144.57;100.00;62443.72;5087493;28;20494;-65
2023/06/13 00:03:53;;;;;;;7.28;4.00;;;;;;;-144.57;100.00;62443.72;5083001;28;20136;-64
2023/06/13 00:06:20;;;;;;;6.38;3.72;;;;;;;-144.57;100.00;62443.72;5067949;28;20044;-65
2023/06/13 00:08:47;;;;;;;6.72;4.38;;;;;;;-144.57;100.00;62443.72;5074810;28;20070;-65
2023/06/13 00:11:13;;;;;;;7.38;3.90;;;;;;;-144.57;100.00;62443.72;5072611;28;20098;-65
2023/06/13 00:13:39;;;;;;;6.72;4.15;;;;;;;-144.57;100.00;62443.72;5072795;28;20036;-65
2023/06/13 00:16:05;;;;;;;7.63;3.85;;;;;;;-144.57;100.00;62443.72;5073914;28;20468;-65
2023/06/13 00:18:31;;;;;;;5.10;3.70;;;;;;;-144.57;100.00;62443.72;5092740;28;20138;-65
2023/06/13 00:20:58;;;;;;;7.05;4.00;;;;;;;-144.57;100.00;62443.72;5092617;28;20131;-65
2023/06/13 00:23:25;;;;;;;6.85;3.45;;;;;;;-144.57;100.00;62443.72;5071473;28;20033;-66
2023/06/13 00:25:51;;;;;;;6.90;3.95;;;;;;;-144.57;100.00;62443.72;5072336;28;20040;-64
2023/06/13 00:28:17;;;;;;;12.98;4.82;;;;;;;-144.57;100.00;62443.72;5079359;28;20036;-65
2023/06/13 00:30:43;;;;;;;7.80;4.13;;;;;;;-144.57;100.00;62443.72;5072384;28;20052;-65
2023/06/13 00:33:11;;;;;;;7.15;4.03;;;;;;;-144.57;100.00;62443.72;5081300;28;20592;-66
2023/06/13 00:35:37;;;;;;;6.63;3.90;;;;;;;-144.57;100.00;62443.72;5072798;28;20558;-65
2023/06/13 00:38:07;;;;;;;6.38;4.07;;;;;;;-144.57;100.00;62443.72;5071882;28;20123;-65
2023/06/13 00:40:32;;;;;;;6.70;4.20;;;;;;;-144.57;100.00;62443.72;5075673;28;20574;-65
2023/06/13 00:42:58;;;;;;;7.18;4.25;;;;;;;-144.57;100.00;62443.72;5070677;28;20261;-64
2023/06/13 00:45:27;;;;;;;12.82;4.00;;;;;;;-144.57;100.00;62443.72;5070625;28;20494;-65
2023/06/13 00:47:58;;;;;;;9.43;4.72;;;;;;;-144.57;100.00;62443.72;5073758;28;20044;-65
2023/06/13 00:50:35;;;;;;;6.55;4.07;;;;;;;-144.57;100.00;62443.72;5087181;28;20530;-65
2023/06/13 00:53:04;;;;;;;8.35;3.92;;;;;;;-144.57;100.00;62443.72;5073701;28;20395;-64
2023/06/13 00:55:30;;;;;;;7.35;4.20;;;;;;;-144.57;100.00;62443.72;5090725;28;20055;-65
2023/06/13 00:57:58;;;;;;;7.30;4.20;;;;;;;-144.57;100.00;62443.72;5069535;28;20055;-65
2023/06/13 01:00:25;;;;;;;7.07;3.95;;;;;;;-144.57;100.00;62443.72;5053679;28;20119;-65
2023/06/13 01:02:57;;;;;;;6.80;4.15;;;;;;;-144.57;100.00;62443.72;5086720;28;20047;-64
2023/06/13 01:05:28;;;;;;;6.57;4.30;;;;;;;-144.57;100.00;62443.72;5082681;28;20048;-63
2023/06/13 01:08:00;;;;;;;9.82;3.95;;;;;;;-144.57;100.00;62443.72;5021740;28;20044;-65
2023/06/13 01:10:28;;;;;;;4.75;3.90;;;;;;;-144.57;100.00;62443.72;5057617;28;20056;-65
2023/06/13 01:13:13;;;;;;;6.90;4.13;;;;;;;-144.57;100.00;62443.72;5070152;28;20045;-65
2023/06/13 01:15:50;;;;;;;5.97;3.63;;;;;;;-144.57;100.00;62443.72;5071777;28;20048;-64
2023/06/13 01:18:17;;;;;;;9.48;4.72;;;;;;;-144.57;100.00;62443.72;5069945;28;20036;-64
2023/06/13 01:20:44;;;;;;;7.63;4.20;;;;;;;-144.57;100.00;62443.72;5053899;28;20460;-64
2023/06/13 01:23:31;;;;;;;6.63;3.78;;;;;;;-144.57;100.00;62443.72;5053575;28;20102;-65
2023/06/13 01:26:20;;;;;;;8.00;3.90;;;;;;;-144.57;100.00;62443.72;5070175;28;20475;-65
2023/06/13 01:28:51;;;;;;;7.32;4.00;;;;;;;-144.57;100.00;62443.72;5070170;28;20048;-64
2023/06/13 01:31:21;;;;;;;9.05;4.10;;;;;;;-144.57;100.00;62443.72;5066914;28;20036;-65
2023/06/13 01:33:47;;;;;;;11.85;4.78;;;;;;;-144.57;100.00;62443.72;5073511;28;20056;-65
2023/06/13 01:36:13;;;;;;;7.30;3.88;;;;;;;-144.57;100.00;62443.72;5065261;28;20067;-65
2023/06/13 01:38:39;;;;;;;7.40;4.05;;;;;;;-144.57;100.00;62443.72;5080008;28;20049;-64
2023/06/13 01:41:05;;;;;;;5.30;3.92;;;;;;;-144.57;100.00;62443.72;5074309;28;20133;-64
2023/06/13 01:43:31;;;;;;;8.55;3.97;;;;;;;-144.57;100.00;62443.72;5086298;28;20056;-65
2023/06/13 01:46:02;;;;;;;7.72;4.15;;;;;;;-144.57;100.00;62443.72;5087092;28;20048;-65
2023/06/13 01:48:43;;;;;;;6.68;3.90;;;;;;;-144.57;100.00;62443.72;5082392;28;20028;-66
2023/06/13 01:51:15;;;;;;;10.80;5.38;;;;;;;-144.57;100.00;62443.72;5088526;28;20068;-65
2023/06/13 01:54:05;;;;;;;5.07;4.10;;;;;;;-144.57;100.00;62443.72;5071123;28;20118;-64
2023/06/13 01:56:32;;;;;;;6.95;4.47;;;;;;;-144.57;100.00;62443.72;5070518;28;20080;-65
2023/06/13 01:58:59;;;;;;;7.15;4.38;;;;;;;-144.57;100.00;62443.72;5069872;28;20044;-66
2023/06/13 02:01:32;;;;;;;5.65;3.58;;;;;;;-144.57;100.00;62443.72;5062823;28;20036;-65
2023/06/13 02:03:59;;;;;;;7.55;4.15;;;;;;;-144.57;100.00;62443.72;5078320;28;20036;-65
2023/06/13 02:06:26;;;;;;;6.43;4.40;;;;;;;-144.57;100.00;62443.72;5087032;28;20493;-64
2023/06/13 02:08:52;;;;;;;8.43;3.63;;;;;;;-144.57;100.00;62443.72;5084746;28;20045;-65
2023/06/13 02:11:18;;;;;;;5.15;4.00;;;;;;;-144.57;100.00;62443.72;5070831;28;20508;-64
2023/06/13 02:13:44;;;;;;;12.45;4.72;;;;;;;-144.57;100.00;62443.72;5074589;28;20131;-64
2023/06/13 02:16:11;;;;;;;10.93;4.47;;;;;;;-144.57;100.00;62443.72;5074182;28;20043;-65
2023/06/13 02:18:37;;;;;;;6.50;4.15;;;;;;;-144.57;100.00;62443.72;5085679;28;20131;-65
2023/06/13 02:21:03;;;;;;;5.97;3.90;;;;;;;-144.57;100.00;62443.72;5075151;28;20048;-64
2023/06/13 02:23:29;;;;;;;5.70;4.15;;;;;;;-144.57;100.00;62443.72;5093079;28;20409;-64
2023/06/13 02:25:55;;;;;;;6.63;4.10;;;;;;;-144.57;100.00;62443.72;5093462;28;20040;-65
2023/06/13 02:28:21;;;;;;;5.82;4.15;;;;;;;-144.57;100.00;62443.72;5085151;28;20036;-64
2023/06/13 02:30:48;;;;;;;5.40;4.13;;;;;;;-144.57;100.00;62443.72;5082233;28;20067;-65
2023/06/13 02:33:14;;;;;;;6.10;4.32;;;;;;;-144.57;100.00;62443.72;5079821;28;20036;-65
2023/06/13 02:35:43;;;;;;;5.97;4.38;;;;;;;-144.57;100.00;62443.72;5089612;28;20063;-65
2023/06/13 02:38:09;;;;;;;8.40;4.15;;;;;;;-144.57;100.00;62443.72;5072535;28;20044;-65
2023/06/13 02:40:38;;;;;;;6.97;4.50;;;;;;;-144.57;100.00;62443.72;5093103;28;20036;-65
2023/06/13 02:43:04;;;;;;;5.85;4.15;;;;;;;-144.57;100.00;62443.72;5092180;28;20089;-65
2023/06/13 02:45:30;;;;;;;8.40;4.43;;;;;;;-144.57;100.00;62443.72;5073159;28;20105;-66
2023/06/13 02:47:57;;;;;;;10.13;4.60;;;;;;;-144.57;100.00;62443.72;5072850;28;20135;-65
2023/06/13 02:50:22;;;;;;;6.05;4.25;;;;;;;-144.57;100.00;62443.72;5086590;28;20450;-65
2023/06/13 02:52:48;;;;;;;7.28;4.30;;;;;;;-144.57;100.00;62443.72;5074091;28;20060;-64
2023/06/13 02:55:14;;;;;;;7.82;4.50;;;;;;;-144.57;100.00;62443.72;5082705;28;20036;-65
2023/06/13 02:57:41;;;;;;;6.13;4.18;;;;;;;-144.57;100.00;62443.72;5090207;28;20055;-65
2023/06/13 03:00:11;;;;;;;6.15;4.40;;;;;;;-144.57;100.00;62443.72;5083287;28;20044;-65
2023/06/13 03:02:40;;;;;;;7.35;4.20;;;;;;;-144.57;100.00;62443.72;5092808;28;20044;-65
2023/06/13 03:05:11;;;;;;;5.90;4.38;;;;;;;-144.57;100.00;62443.72;5074290;28;20186;-66
2023/06/13 03:07:42;;;;;;;6.13;4.13;;;;;;;-144.57;100.00;62443.72;5072525;28;20048;-64
2023/06/13 03:10:09;;;;;;;7.13;4.18;;;;;;;-144.57;100.00;62443.72;5055898;28;20040;-65
2023/06/13 03:12:39;;;;;;;7.45;4.28;;;;;;;-144.57;100.00;62443.72;5072533;28;20194;-66
2023/06/13 03:15:07;;;;;;;7.50;4.25;;;;;;;-144.57;100.00;62443.72;5072626;28;20080;-65
2023/06/13 03:17:33;;;;;;;5.75;4.40;;;;;;;-144.57;100.00;62443.72;5092472;28;20047;-65
2023/06/13 03:20:00;;;;;;;6.22;4.03;;;;;;;-144.57;100.00;62443.72;5092608;28;20117;-65
2023/06/13 03:22:26;;;;;;;10.25;4.05;;;;;;;-144.57;100.00;62443.72;5092635;28;20095;-65
2023/06/13 03:24:52;;;;;;;7.70;4.20;;;;;;;-144.57;100.00;62443.72;5075817;28;20051;-65
2023/06/13 03:27:19;;;;;;;7.60;3.95;;;;;;;-144.57;100.00;62443.72;5092536;28;20071;-65
2023/06/13 03:29:46;;;;;;;5.10;3.80;;;;;;;-144.57;100.00;62443.72;5078887;28;20117;-65
2023/06/13 03:32:12;;;;;;;6.22;4.20;;;;;;;-144.57;100.00;62443.72;5084354;28;20082;-65
2023/06/13 03:34:39;;;;;;;6.72;3.90;;;;;;;-144.57;100.00;62443.72;5077284;28;20170;-65
2023/06/13 03:37:08;;;;;;;10.43;4.03;;;;;;;-144.57;100.00;62443.72;5090551;28;20043;-65
2023/06/13 03:39:35;;;;;;;6.50;3.85;;;;;;;-144.57;100.00;62443.72;5087633;28;20047;-65
2023/06/13 03:42:01;;;;;;;6.80;3.60;;;;;;;-144.57;100.00;62443.72;5089140;28;20044;-65
2023/06/13 03:44:28;;;;;;;4.18;3.20;;;;;;;-144.57;100.00;62443.72;5086377;28;20373;-66
2023/06/13 03:46:55;;;;;;;5.32;3.65;;;;;;;-144.57;100.00;62443.72;5071738;28;20145;-65
2023/06/13 03:49:24;;;;;;;5.65;3.58;;;;;;;-144.57;100.00;62443.72;5085584;28;20119;-65
2023/06/13 03:51:50;;;;;;;6.20;4.10;;;;;;;-144.57;100.00;62443.72;5091953;28;20048;-65
2023/06/13 03:54:16;;;;;;;5.60;3.53;;;;;;;-144.57;100.00;62443.72;5065726;28;20048;-65
2023/06/13 03:56:42;;;;;;;5.90;3.40;;;;;;;-144.57;100.00;62443.72;5092391;28;20413;-65
2023/06/13 03:59:08;;;;;;;8.50;3.55;;;;;;;-144.57;100.00;62443.72;5074632;28;20044;-65
2023/06/13 04:01:34;;;;;;;4.38;3.25;;;;;;;-144.57;100.00;62443.72;5083515;28;20052;-65
2023/06/13 04:03:59;;;;;;;7.65;3.80;;;;;;;-144.57;100.00;62443.72;5089689;28;20092;-65
2023/06/13 04:06:28;;;;;;;6.63;3.30;;;;;;;-144.57;100.00;62443.72;5086803;28;20042;-65
2023/06/13 04:08:57;;;;;;;7.87;3.60;;;;;;;-144.57;100.00;62443.72;5072717;28;20041;-66
2023/06/13 04:11:24;;;;;;;5.88;3.38;;;;;;;-144.57;100.00;62443.72;5082015;28;20044;-66
2023/06/13 04:13:50;;;;;;;5.68;3.72;;;;;;;-144.57;100.00;62443.72;5081938;28;20037;-64
2023/06/13 04:16:15;;;;;;;4.85;3.22;;;;;;;-144.57;100.00;62443.72;5075748;28;20043;-65
2023/06/13 04:18:42;;;;;;;7.72;4.03;;;;;;;-144.57;100.00;62443.72;5092523;28;20048;-65
2023/06/13 04:21:08;;;;;;;7.68;3.72;;;;;;;-144.57;100.00;62443.72;5065005;28;20097;-66
2023/06/13 04:23:34;;;;;;;5.60;3.10;;;;;;;-144.57;100.00;62443.72;5076193;28;20083;-65
2023/06/13 04:26:02;;;;;;;5.43;3.35;;;;;;;-144.57;100.00;62443.72;5073787;28;20224;-65
2023/06/13 04:28:32;;;;;;;6.65;3.33;;;;;;;-144.57;100.00;62443.72;5080572;28;20040;-65
2023/06/13 04:31:03;;;;;;;4.45;3.10;;;;;;;-144.57;100.00;62443.72;5074068;28;20085;-65
2023/06/13 04:33:29;;;;;;;5.35;3.05;;;;;;;-144.57;100.00;62443.72;5074996;28;20046;-65
2023/06/13 04:36:03;;;;;;;4.47;3.10;;;;;;;-144.57;100.00;62443.72;5089627;28;20520;-65
2023/06/13 04:38:29;;;;;;;5.15;2.70;;;;;;;-144.57;100.00;62443.72;5073077;28;20040;-67
2023/06/13 04:40:55;;;;;;;4.95;2.35;;;;;;;-144.57;100.00;62443.72;5075383;28;20401;-66
2023/06/13 04:43:21;;;;;;;6.95;2.72;;;;;;;-144.57;100.00;62443.72;5070593;28;20115;-66
2023/06/13 04:45:48;;;;;;;4.82;2.83;;;;;;;-144.57;100.00;62443.72;5077761;28;20139;-66
2023/06/13 04:48:15;;;;;;;3.90;2.85;;;;;;;-144.57;100.00;62443.72;5090531;28;20387;-66
2023/06/13 04:50:41;;;;;;;9.25;2.85;;;;;;;-144.57;100.00;62443.72;5075372;28;20040;-65
2023/06/13 04:53:11;;;;;;;5.82;2.58;;;;;;;-144.57;100.00;62443.72;5089335;28;20062;-65
2023/06/13 04:55:40;;;;;;;2.25;2.03;;;;;;;-144.57;100.00;62443.72;5092312;28;20421;-66
2023/06/13 04:58:06;;;;;;;5.45;2.70;;;;;;;-144.57;100.00;62443.72;5091878;28;20097;-66
2023/06/13 05:00:32;;;;;;;5.30;2.70;;;;;;;-144.57;100.00;62443.72;5076590;28;20040;-65
2023/06/13 05:03:00;;;;;;;4.10;2.42;;;;;;;-144.57;100.00;62443.72;5071400;28;20110;-65
2023/06/13 05:05:26;;;;;;;4.38;2.50;;;;;;;-144.57;100.00;62443.72;5081054;28;20098;-65
2023/06/13 05:07:55;;;;;;;6.25;2.80;;;;;;;-144.57;100.00;62443.72;5077743;28;20045;-66
2023/06/13 05:10:25;;;;;;;6.85;2.67;;;;;;;-144.57;100.00;62443.72;5086424;28;20376;-66
2023/06/13 05:12:51;;;;;;;5.85;2.30;;;;;;;-144.57;100.00;62443.72;5091897;28;20048;-65
2023/06/13 05:15:18;;;;;;;9.00;2.85;;;;;;;-144.57;100.00;62443.72;5070926;28;20041;-67
2023/06/13 05:17:48;;;;;;;6.05;2.67;;;;;;;-144.57;100.00;62443.72;5087124;28;20127;-64
2023/06/13 05:20:14;;;;;;;10.05;2.80;;;;;;;-144.57;100.00;62443.72;5071675;28;20044;-65
2023/06/13 05:22:41;;;;;;;7.57;2.60;;;;;;;-144.57;100.00;62443.72;5088517;28;20056;-64
2023/06/13 05:25:11;;;;;;;5.25;2.38;;;;;;;-144.57;100.00;62443.72;5075347;28;20036;-66
2023/06/13 05:27:37;;;;;;;;;;;;;;;-144.57;100.00;62443.72;5089877;28;20036;-66
2023/06/13 05:30:08;;;;;;;3.88;2.30;;;;;;;-144.57;100.00;62443.72;5077662;28;20370;-63
2023/06/13 05:32:33;;;;;;;5.30;2.28;;;;;;;-144.57;100.00;62443.72;5076741;28;20048;-63
2023/06/13 05:35:00;;;;;;;4.50;2.22;;;;;;;-144.57;100.00;62443.72;5089796;28;20040;-63
2023/06/13 05:37:28;;;;;;;4.85;2.40;;;;;;;-144.57;100.00;62443.72;5082621;28;20048;-64
2023/06/13 05:39:55;;;;;;;7.95;2.15;;;;;;;-144.57;100.00;62443.72;5074072;28;20174;-63
2023/06/13 05:42:21;;;;;;;7.15;2.08;;;;;;;-144.57;100.00;62443.72;5076573;28;20044;-63
2023/06/13 05:44:46;;;;;;;6.65;2.22;;;;;;;-144.57;100.00;62443.72;5077364;28;20040;-63
2023/06/13 05:47:12;;;;;;;5.10;2.47;;;;;;;-144.57;100.00;62443.72;5087881;28;20054;-64
2023/06/13 05:49:38;;;;;;;5.15;2.22;;;;;;;-144.57;100.00;62443.72;5086755;28;20462;-62
2023/06/13 05:52:04;;;;;;;3.35;1.90;;;;;;;-144.57;100.00;62443.72;5076332;28;20048;-62
2023/06/13 05:54:31;;;;;;;4.72;1.88;;;;;;;-144.57;100.00;62443.72;5072727;28;20138;-62
2023/06/13 05:56:56;;;;;;;4.95;1.92;;;;;;;-144.57;100.00;62443.72;5091804;28;20044;-64
2023/06/13 05:59:22;;;;;;;4.40;1.75;;;;;;;-144.57;100.00;62443.72;5092737;28;20040;-63
2023/06/13 06:01:49;;;;;;;2.72;1.85;;;;;;;-144.57;100.00;62443.72;5074339;28;20083;-66
2023/06/13 06:04:14;;;;;;;3.15;2.00;;;;;;;-144.57;100.00;62443.72;5055798;28;20041;-63
2023/06/13 06:06:40;;;;;;;3.38;1.90;;;;;;;-144.57;100.00;62443.72;5074701;28;20052;-62
2023/06/13 06:09:06;;;;;;;3.53;2.00;;;;;;;-144.57;100.00;62443.72;5071891;28;20033;-63
2023/06/13 06:11:33;;;;;;;10.18;3.17;;;;;;;-144.57;100.00;62443.72;5073085;28;20323;-65
2023/06/13 06:13:59;;;;;;;3.08;1.83;;;;;;;-144.57;100.00;62443.72;5072334;28;20048;-61
2023/06/13 06:16:24;;;;;;;4.28;1.85;;;;;;;-144.57;100.00;62443.72;5077896;28;20047;-63
2023/06/13 06:18:51;;;;;;;4.20;1.80;;;;;;;-144.57;100.00;62443.72;5091783;28;20113;-65
2023/06/13 06:21:16;;;;;;;6.65;2.22;;;;;;;-144.57;100.00;62443.72;5049002;28;20040;-62
2023/06/13 06:23:42;;;;;;;5.45;2.13;;;;;;;-144.57;100.00;62443.72;5072750;28;20613;-63
2023/06/13 06:26:11;;;;;;;5.35;2.15;;;;;;;-144.57;100.00;62443.72;5071977;28;20052;-65
2023/06/13 06:28:38;;;;;;;2.33;1.80;;;;;;;-144.57;100.00;62443.72;5074262;28;20083;-62
2023/06/13 06:31:05;;;;;;;4.13;2.15;;;;;;;-144.57;100.00;62443.72;5086261;28;20119;-63
2023/06/13 06:33:31;;;;;;;9.38;2.80;;;;;;;-144.57;100.00;62443.72;5093271;28;20114;-62
2023/06/13 06:35:57;;;;;;;5.10;2.78;;;;;;;-144.57;100.00;62443.72;5078412;28;20427;-62
2023/06/13 06:38:23;;;;;;;9.50;2.50;;;;;;;-144.57;100.00;62443.72;5074956;28;20048;-62
2023/06/13 06:40:48;;;;;;;3.38;2.05;;;;;;;-144.57;100.00;62443.72;5072556;28;20498;-61
2023/06/13 06:43:14;;;;;;;2.85;2.20;;;;;;;-144.57;100.00;62443.72;5082179;28;20035;-62
2023/06/13 06:45:40;;;;;;;2.58;1.88;;;;;;;-144.57;100.00;62443.72;5092645;28;20067;-64
2023/06/13 06:48:06;;;;;;;4.60;2.30;;;;;;;-144.57;100.00;62443.72;5090026;28;20576;-64
2023/06/13 06:50:32;;;;;;;3.33;1.80;;;;;;;-144.57;100.00;62443.72;5094447;28;20436;-63
2023/06/13 06:52:58;;;;;;;3.72;2.05;;;;;;;-144.57;100.00;62443.72;5075599;28;20044;-64
2023/06/13 06:55:23;;;;;;;2.08;1.80;;;;;;;-144.57;100.00;62443.72;5094140;28;20040;-63
2023/06/13 06:57:53;;;;;;;5.55;2.22;;;;;;;-144.57;100.00;62443.72;5091673;28;20055;-65
2023/06/13 07:00:21;;;;;;;3.83;2.47;;;;;;;-144.57;100.00;62443.72;5075964;28;20521;-63
2023/06/13 07:02:47;;;;;;;3.85;2.20;;;;;;;-144.57;100.00;62443.72;5076531;28;20044;-63
2023/06/13 07:05:15;;;;;;;4.03;1.98;;;;;;;-144.57;100.00;62443.72;5094228;28;20067;-63
2023/06/13 07:07:42;;;;;;;4.10;2.20;;;;;;;-144.57;100.00;62443.72;5089905;28;20517;-64
2023/06/13 07:10:08;;;;;;;3.28;2.00;;;;;;;-144.57;100.00;62443.72;5089847;28;20470;-63
2023/06/13 07:12:34;;;;;;;4.40;2.17;;;;;;;-144.57;100.00;62443.72;5074666;28;20045;-63
2023/06/13 07:15:00;;;;;;;4.60;2.28;;;;;;;-144.57;100.00;62443.72;5075485;28;20039;-64
2023/06/13 07:17:27;;;;;;;4.95;2.60;;;;;;;-144.57;100.00;62443.72;5064146;28;20110;-65
2023/06/13 07:19:54;;;;;;;4.65;2.05;;;;;;;-144.57;100.00;62443.72;5030350;28;20055;-63
2023/06/13 07:22:19;;;;;;;3.13;2.00;;;;;;;-144.57;100.00;62443.72;5093462;28;20048;-65
2023/06/13 07:24:45;;;;;;;6.88;2.30;;;;;;;-144.57;100.00;62443.72;5091280;28;20051;-63
2023/06/13 07:27:11;;;;;;;3.45;2.55;;;;;;;-144.57;100.00;62443.72;5091612;28;20414;-63
2023/06/13 07:29:36;;;;;;;3.20;2.47;;;;;;;-144.57;100.00;62443.72;5074879;28;20036;-61
2023/06/13 07:32:03;;;;;;;6.88;2.17;;;;;;;-144.57;100.00;62443.72;5075070;28;20268;-63
2023/06/13 07:34:28;;;;;;;6.45;2.78;;;;;;;-144.57;100.00;62443.72;5091605;28;20048;-68
2023/06/13 07:36:54;;;;;;;3.60;2.10;;;;;;;-144.57;100.00;62443.72;5088956;28;20094;-63
2023/06/13 07:39:20;;;;;;;2.72;2.00;;;;;;;-144.57;100.00;62443.72;5089414;28;20044;-65
2023/06/13 07:41:48;;;;;;;3.10;2.17;;;;;;;-144.57;100.00;62443.72;5071879;28;20163;-66
2023/06/13 07:44:14;;;;;;;6.25;2.00;;;;;;;-144.57;100.00;62443.72;5075980;28;20076;-64
2023/06/13 07:46:40;;;;;;;4.18;2.15;;;;;;;-144.57;100.00;62443.72;5072246;28;20083;-64
2023/06/13 07:49:06;;;;;;;9.02;2.35;;;;;;;-144.57;100.00;62443.72;5072989;28;20055;-64
2023/06/13 07:51:32;;;;;;;3.30;2.00;;;;;;;-144.57;100.00;62443.72;5071357;28;20052;-66
2023/06/13 07:53:58;;;;;;;4.57;2.40;;;;;;;-144.57;100.00;62443.72;5071516;28;20068;-64
2023/06/13 07:56:24;;;;;;;2.92;2.10;;;;;;;-144.57;100.00;62443.72;5072404;28;20083;-65
2023/06/13 07:58:50;;;;;;;3.85;2.42;;;;;;;-144.57;100.00;62443.72;5071693;28;20083;-62
2023/06/13 08:01:15;;;;;;;5.30;2.63;;;;;;;-144.57;100.00;62443.72;5071288;28;20574;-65
2023/06/13 08:03:43;;;;;;;7.72;2.60;;;;;;;-144.57;100.00;62443.72;5071012;28;20123;-65
2023/06/13 08:06:09;;;;;;;5.22;2.80;;;;;;;-144.57;100.00;62443.72;5069726;28;20040;-64
2023/06/13 08:08:35;;;;;;;5.13;2.50;;;;;;;-144.57;100.00;62443.72;5070908;28;20055;-64
2023/06/13 08:11:00;;;;;;;4.68;2.17;;;;;;;-144.57;100.00;62443.72;5070839;28;20040;-64
2023/06/13 08:13:26;;;;;;;8.25;2.70;;;;;;;-144.57;100.00;62443.72;5069640;28;20064;-64
2023/06/13 08:15:52;;;;;;;6.78;2.22;;;;;;;-144.57;100.00;62443.72;5036678;28;20047;-64
2023/06/13 08:18:17;;;;;;;4.53;2.42;;;;;;;-144.57;100.00;62443.72;5089779;28;20048;-65
2023/06/13 08:20:43;;;;;;;3.75;2.38;;;;;;;-144.57;100.00;62443.72;5091132;28;20237;-65
2023/06/13 08:23:09;;;;;;;4.95;2.20;;;;;;;-144.57;100.00;62443.72;5090384;28;20122;-65
2023/06/13 08:25:35;;;;;;;3.38;2.42;;;;;;;-144.57;100.00;62443.72;5073517;28;20074;-66
2023/06/13 08:28:01;;;;;;;6.03;2.42;;;;;;;-144.57;100.00;62443.72;5090701;28;20165;-65
2023/06/13 08:30:27;;;;;;;2.47;2.20;;;;;;;-144.57;100.00;62443.72;5091781;28;20039;-65
2023/06/13 08:32:52;;;;;;;3.42;2.28;;;;;;;-144.57;100.00;62443.72;5091164;28;20048;-65
2023/06/13 08:35:19;;;;;;;6.07;2.38;;;;;;;-144.57;100.00;62443.72;5090381;28;20054;-65
2023/06/13 08:37:45;;;;;;;3.17;2.20;;;;;;;-144.57;100.00;62443.72;5091880;28;20047;-66
2023/06/13 08:40:12;;;;;;;3.03;2.45;;;;;;;-144.57;100.00;62443.72;5091891;28;20043;-65
2023/06/13 08:42:39;;;;;;;5.45;2.30;;;;;;;-144.57;100.00;62443.72;5089133;28;20052;-65
2023/06/13 08:45:06;;;;;;;3.83;2.10;;;;;;;-144.57;100.00;62443.72;5089583;28;20043;-65
2023/06/13 08:47:33;;;;;;;2.85;2.17;;;;;;;-144.57;100.00;62443.72;5087216;28;20084;-66
2023/06/13 08:50:00;;;;;;;6.60;2.20;;;;;;;-144.57;100.00;62443.72;5088258;28;20089;-64
2023/06/13 08:52:29;;;;;;;3.63;2.00;;;;;;;-144.57;100.00;62443.72;5087899;28;20040;-66
2023/06/13 08:54:58;;;;;;;4.75;2.30;;;;;;;-144.57;100.00;62443.72;5071289;28;20036;-65
2023/06/13 08:57:25;;;;;;;4.38;2.58;;;;;;;-144.57;100.00;62443.72;5080072;28;20048;-65
2023/06/13 08:59:52;;;;;;;3.58;2.33;;;;;;;-144.57;100.00;62443.72;5035620;28;20040;-65
2023/06/13 09:02:20;;;;;;;4.40;2.17;;;;;;;-144.57;100.00;62443.72;5069682;28;20056;-64
2023/06/13 09:04:47;;;;;;;4.95;2.30;;;;;;;-144.57;100.00;62443.72;5071042;28;20469;-65
2023/06/13 09:07:13;;;;;;;4.50;2.72;;;;;;;-144.57;100.00;62443.72;5069625;28;20098;-65
2023/06/13 09:09:39;;;;;;;5.45;2.80;;;;;;;-144.57;100.00;62443.72;5069414;28;20036;-66
2023/06/13 09:12:06;;;;;;;9.60;2.50;;;;;;;-144.57;100.00;62443.72;5069812;28;20048;-64
2023/06/13 09:14:32;;;;;;;3.05;2.30;;;;;;;-144.57;100.00;62443.72;5069794;28;20048;-66
2023/06/13 09:16:58;;;;;;;2.90;2.00;;;;;;;-144.57;100.00;62443.72;5080208;28;20047;-65
2023/06/13 09:19:23;;;;;;;4.85;2.50;;;;;;;-144.57;100.00;62443.72;5089290;28;20082;-66
2023/06/13 09:21:50;;;;;;;4.38;2.33;;;;;;;-144.57;100.00;62443.72;5089566;28;20040;-66
2023/06/13 09:24:16;;;;;;;5.10;2.30;;;;;;;-144.57;100.00;62443.72;5089481;28;20043;-64
2023/06/13 09:26:41;;;;;;;2.97;2.38;;;;;;;-144.57;100.00;62443.72;5067113;28;20044;-65
2023/06/13 09:29:07;;;;;;;3.63;2.60;;;;;;;-144.57;100.00;62443.72;5084901;28;20052;-66
2023/06/13 09:31:37;;;;;;;5.18;2.50;;;;;;;-144.57;100.00;62443.72;5069855;28;20052;-66
2023/06/13 09:34:05;;;;;;;3.25;2.58;;;;;;;-144.57;100.00;62443.72;5070378;28;20530;-65
2023/06/13 09:36:37;;;;;;;5.65;2.92;;;;;;;-144.57;100.00;62443.72;5058989;28;20053;-64
2023/06/13 09:39:06;;;;;;;3.92;2.45;;;;;;;-144.57;100.00;62443.72;5075317;28;20044;-63
2023/06/13 09:41:33;;;;;;;2.85;2.55;;;;;;;-144.57;100.00;62443.72;5089351;28;20040;-65
2023/06/13 09:44:04;;;;;;;5.20;2.47;;;;;;;-144.57;100.00;62443.72;5092386;28;20032;-64
2023/06/13 09:46:34;;;;;;;2.05;1.85;;;;;;;-144.57;100.00;62443.72;5081448;28;20044;-66
2023/06/13 09:49:00;;;;;;;3.80;2.38;;;;;;;-144.57;100.00;62443.72;5051267;28;20123;-65
2023/06/13 09:51:29;;;;;;;4.40;2.58;;;;;;;-144.57;100.00;62443.72;5077929;28;20055;-65
2023/06/13 09:53:55;;;;;;;4.85;2.30;;;;;;;-144.57;100.00;62443.72;5077313;28;20093;-66
2023/06/13 09:56:24;;;;;;;4.63;3.25;;;;;;;-144.57;100.00;62443.72;5072745;28;20036;-67
2023/06/13 10:02:01;;;;;;;5.85;2.40;;;;;;;-144.57;100.00;62443.72;4938625;29;20483;-66
2023/06/13 10:04:27;;;;;;;6.43;2.85;;;;;;;-144.57;100.00;62443.72;4929623;29;20473;-66
2023/06/13 10:06:52;;;;;;;3.45;2.50;;;;;;;-144.57;100.00;62443.72;4931005;29;20044;-66
2023/06/13 10:09:18;;;;;;;6.32;2.60;;;;;;;-144.57;100.00;62443.72;4951925;28;20094;-67
2023/06/13 10:11:48;;;;;;;7.43;2.85;;;;;;;-144.57;100.00;62443.72;4933332;29;20146;-67
2023/06/13 10:14:16;;;;;;;4.63;2.80;;;;;;;-144.57;100.00;62443.72;4918809;29;20121;-67
2023/06/13 10:16:47;;;;;;;5.82;2.65;;;;;;;-144.57;100.00;62443.72;4951675;28;20062;-67
2023/06/13 10:19:16;;;;;;;5.85;2.25;;;;;;;-144.57;100.00;62443.72;4934869;28;20039;-66
2023/06/13 10:21:43;;;;;;;4.32;2.47;;;;;;;-144.57;100.00;62443.72;4902388;29;20039;-68
2023/06/13 10:24:10;;;;;;;2.95;2.42;;;;;;;-144.57;100.00;62443.72;4951603;29;20098;-68
2023/06/13 10:26:38;;;;;;;6.95;2.67;;;;;;;-144.57;100.00;62443.72;4935373;29;20047;-66
2023/06/13 10:29:12;;;;;;;5.50;2.20;;;;;;;-144.57;100.00;62443.72;4919022;29;20057;-64
2023/06/13 10:31:59;;;;;;;3.95;2.92;;;;;;;-144.57;100.00;62443.72;4935119;29;20054;-66
2023/06/13 10:34:40;;;;;;;4.35;2.72;;;;;;;-144.57;100.00;62443.72;4952174;29;20039;-68
2023/06/13 10:37:32;;;;;;;8.35;2.80;;;;;;;-144.57;100.00;62443.72;4952328;29;20121;-67
2023/06/13 10:40:19;;;;;;;3.35;2.40;;;;;;;-144.57;100.00;62443.72;4951640;28;20047;-68
2023/06/13 10:42:48;;;;;;;4.68;2.67;;;;;;;-144.57;100.00;62443.72;4934965;29;20051;-68
2023/06/13 10:45:21;;;;;;;5.57;3.22;;;;;;;-144.57;100.00;62443.72;4922399;29;20114;-68
2023/06/13 10:47:47;;;;;;;4.07;2.53;;;;;;;-144.57;100.00;62443.72;4938779;29;20047;-68
2023/06/13 10:50:14;;;;;;;2.53;2.33;;;;;;;-144.57;100.00;62443.72;4936012;29;20185;-67
2023/06/13 10:52:45;;;;;;;4.93;2.78;;;;;;;-144.57;100.00;62443.72;4941790;29;20039;-68
2023/06/13 10:55:26;;;;;;;4.63;2.47;;;;;;;-144.57;100.00;62443.72;4956287;28;20046;-67
2023/06/13 10:58:02;;;;;;;6.60;2.65;;;;;;;-144.57;100.00;62443.72;4937848;29;20039;-67
2023/06/13 11:00:35;;;;;;;7.85;2.55;;;;;;;-144.57;100.00;62443.72;4954227;28;20425;-67
2023/06/13 11:03:07;;;;;;;4.80;2.45;;;;;;;-144.57;100.00;62443.72;4954546;28;20065;-67
2023/06/13 11:05:34;;;;;;;6.18;2.78;;;;;;;-144.57;100.00;62443.72;4955889;28;20031;-66
2023/06/13 11:08:00;;;;;;;4.80;2.83;;;;;;;-144.57;100.00;62443.72;4938249;29;20039;-66
2023/06/13 11:10:29;;;;;;;5.55;2.72;;;;;;;-144.57;100.00;62443.72;4938315;29;20047;-68
2023/06/13 11:12:56;;;;;;;5.07;2.60;;;;;;;-144.57;100.00;62443.72;4922191;29;20043;-67
2023/06/13 11:15:26;;;;;;;3.75;2.58;;;;;;;-144.57;100.00;62443.72;4937258;29;20051;-66